sensor_id;sensor_type;location;lat;lon;timestamp;pressure;altitude;pressure_sealevel;temperature;humidity
47761;BME280;33524;55.434;38.520;2023-02-28T00:00:08;100826.59;;;-8.61;93.15
47761;BME280;33524;55.434;38.520;2023-02-28T00:02:41;100832.38;;;-8.73;93.92
47761;BME280;33524;55.434;38.520;2023-02-28T00:05:13;100825.28;;;-8.26;93.93
47761;BME280;33524;55.434;38.520;2023-02-28T00:07:43;100823.81;;;-8.03;94.01
47761;BME280;33524;55.434;38.520;2023-02-28T00:10:16;100817.81;;;-8.08;92.96
47761;BME280;33524;55.434;38.520;2023-02-28T00:12:50;100812.78;;;-7.99;93.44
47761;BME280;33524;55.434;38.520;2023-02-28T00:15:20;100805.12;;;-8.02;93.84
47761;BME280;33524;55.434;38.520;2023-02-28T00:17:53;100790.81;;;-7.84;94.21
47761;BME280;33524;55.434;38.520;2023-02-28T00:20:23;100794.16;;;-7.88;93.67
47761;BME280;33524;55.434;38.520;2023-02-28T00:22:53;100788.16;;;-7.95;93.87
47761;BME280;33524;55.434;38.520;2023-02-28T00:25:24;100791.69;;;-7.79;94.40
47761;BME280;33524;55.434;38.520;2023-02-28T00:27:55;100778.88;;;-7.85;93.52
47761;BME280;33524;55.434;38.520;2023-02-28T00:30:25;100767.72;;;-7.95;93.71
47761;BME280;33524;55.434;38.520;2023-02-28T00:32:55;100770.16;;;-8.09;93.19
47761;BME280;33524;55.434;38.520;2023-02-28T00:35:25;100773.44;;;-8.22;92.59
47761;BME280;33524;55.434;38.520;2023-02-28T00:37:55;100774.34;;;-8.16;92.60
47761;BME280;33524;55.434;38.520;2023-02-28T00:40:25;100773.88;;;-8.60;92.90
47761;BME280;33524;55.434;38.520;2023-02-28T00:42:54;100769.81;;;-8.44;92.54
47761;BME280;33524;55.434;38.520;2023-02-28T00:45:25;100775.38;;;-8.78;92.55
47761;BME280;33524;55.434;38.520;2023-02-28T00:47:55;100770.16;;;-8.87;92.96
47761;BME280;33524;55.434;38.520;2023-02-28T00:50:25;100771.09;;;-8.79;93.22
47761;BME280;33524;55.434;38.520;2023-02-28T00:52:54;100764.28;;;-8.81;94.08
47761;BME280;33524;55.434;38.520;2023-02-28T00:55:27;100767.81;;;-8.71;93.60
47761;BME280;33524;55.434;38.520;2023-02-28T00:57:57;100761.44;;;-9.04;93.22
47761;BME280;33524;55.434;38.520;2023-02-28T01:00:27;100760.75;;;-8.91;93.69
47761;BME280;33524;55.434;38.520;2023-02-28T01:02:56;100758.03;;;-9.03;93.25
47761;BME280;33524;55.434;38.520;2023-02-28T01:05:26;100751.28;;;-9.01;93.84
47761;BME280;33524;55.434;38.520;2023-02-28T01:07:55;100729.47;;;-8.79;93.34
47761;BME280;33524;55.434;38.520;2023-02-28T01:10:25;100740.22;;;-9.03;93.15
47761;BME280;33524;55.434;38.520;2023-02-28T01:12:55;100743.78;;;-8.89;93.94
47761;BME280;33524;55.434;38.520;2023-02-28T01:15:24;100732.03;;;-8.78;93.44
47761;BME280;33524;55.434;38.520;2023-02-28T01:17:53;100737.75;;;-8.96;92.46
47761;BME280;33524;55.434;38.520;2023-02-28T01:20:26;100725.63;;;-9.15;93.16
47761;BME280;33524;55.434;38.520;2023-02-28T01:22:55;100725.00;;;-8.99;93.43
47761;BME280;33524;55.434;38.520;2023-02-28T01:25:25;100720.25;;;-9.37;93.26
47761;BME280;33524;55.434;38.520;2023-02-28T01:27:55;100722.94;;;-9.24;94.10
47761;BME280;33524;55.434;38.520;2023-02-28T01:30:27;100719.66;;;-9.16;93.99
47761;BME280;33524;55.434;38.520;2023-02-28T01:32:57;100727.53;;;-9.00;94.75
47761;BME280;33524;55.434;38.520;2023-02-28T01:35:26;100718.13;;;-9.04;92.81
47761;BME280;33524;55.434;38.520;2023-02-28T01:37:56;100715.63;;;-9.00;93.51
47761;BME280;33524;55.434;38.520;2023-02-28T01:40:40;100712.19;;;-9.05;93.41
47761;BME280;33524;55.434;38.520;2023-02-28T01:43:21;100717.22;;;-9.08;94.16
47761;BME280;33524;55.434;38.520;2023-02-28T01:45:53;100718.94;;;-9.68;93.06
47761;BME280;33524;55.434;38.520;2023-02-28T01:48:32;100721.53;;;-9.65;93.49
47761;BME280;33524;55.434;38.520;2023-02-28T01:51:07;100712.00;;;-9.78;93.56
47761;BME280;33524;55.434;38.520;2023-02-28T01:53:44;100701.97;;;-9.67;94.05
47761;BME280;33524;55.434;38.520;2023-02-28T01:56:20;100696.72;;;-9.78;93.77
47761;BME280;33524;55.434;38.520;2023-02-28T01:58:53;100692.91;;;-9.50;93.68
47761;BME280;33524;55.434;38.520;2023-02-28T02:01:26;100690.25;;;-9.58;93.12
47761;BME280;33524;55.434;38.520;2023-02-28T02:04:00;100687.00;;;-9.47;94.27
47761;BME280;33524;55.434;38.520;2023-02-28T02:06:43;100682.25;;;-9.82;93.59
47761;BME280;33524;55.434;38.520;2023-02-28T02:09:14;100678.75;;;-9.89;93.73
47761;BME280;33524;55.434;38.520;2023-02-28T02:11:45;100669.50;;;-9.82;94.18
47761;BME280;33524;55.434;38.520;2023-02-28T02:14:31;100668.97;;;-9.63;94.62
47761;BME280;33524;55.434;38.520;2023-02-28T02:17:16;100673.47;;;-9.43;94.33
47761;BME280;33524;55.434;38.520;2023-02-28T02:32:28;100646.44;;;-9.30;94.20
47761;BME280;33524;55.434;38.520;2023-02-28T02:37:02;100650.91;;;-9.78;93.68
47761;BME280;33524;55.434;38.520;2023-02-28T02:39:56;100651.22;;;-9.57;93.39
47761;BME280;33524;55.434;38.520;2023-02-28T02:42:52;100647.47;;;-9.82;93.25
47761;BME280;33524;55.434;38.520;2023-02-28T02:45:39;100641.13;;;-9.50;94.26
47761;BME280;33524;55.434;38.520;2023-02-28T02:48:14;100637.44;;;-9.71;93.39
47761;BME280;33524;55.434;38.520;2023-02-28T02:50:49;100635.56;;;-9.84;93.67
47761;BME280;33524;55.434;38.520;2023-02-28T02:53:32;100626.81;;;-9.42;94.12
47761;BME280;33524;55.434;38.520;2023-02-28T02:56:09;100633.47;;;-9.52;93.59
47761;BME280;33524;55.434;38.520;2023-02-28T02:58:42;100626.38;;;-9.71;93.80
47761;BME280;33524;55.434;38.520;2023-02-28T03:01:18;100628.22;;;-9.63;94.17
47761;BME280;33524;55.434;38.520;2023-02-28T03:04:01;100618.03;;;-9.61;94.05
47761;BME280;33524;55.434;38.520;2023-02-28T03:06:32;100606.75;;;-9.80;93.69
47761;BME280;33524;55.434;38.520;2023-02-28T03:09:05;100606.91;;;-9.71;93.35
47761;BME280;33524;55.434;38.520;2023-02-28T03:11:35;100605.38;;;-9.58;93.30
47761;BME280;33524;55.434;38.520;2023-02-28T03:15:12;100599.94;;;-9.84;93.58
47761;BME280;33524;55.434;38.520;2023-02-28T03:18:10;100600.25;;;-9.60;94.05
47761;BME280;33524;55.434;38.520;2023-02-28T03:20:03;100590.81;;;-9.68;93.86
47761;BME280;33524;55.434;38.520;2023-02-28T03:23:02;100594.00;;;-9.82;93.68
47761;BME280;33524;55.434;38.520;2023-02-28T03:25:59;100587.91;;;-9.95;93.75
47761;BME280;33524;55.434;38.520;2023-02-28T03:31:39;100580.75;;;-9.61;92.91
47761;BME280;33524;55.434;38.520;2023-02-28T03:34:16;100575.47;;;-8.98;94.57
47761;BME280;33524;55.434;38.520;2023-02-28T03:36:52;100579.81;;;-9.66;92.64
47761;BME280;33524;55.434;38.520;2023-02-28T03:39:28;100583.84;;;-9.80;92.76
47761;BME280;33524;55.434;38.520;2023-02-28T03:42:11;100572.78;;;-9.85;93.11
47761;BME280;33524;55.434;38.520;2023-02-28T03:44:49;100569.69;;;-9.61;93.01
47761;BME280;33524;55.434;38.520;2023-02-28T03:47:41;100555.13;;;-9.71;93.02
47761;BME280;33524;55.434;38.520;2023-02-28T03:50:22;100540.41;;;-9.96;92.66
47761;BME280;33524;55.434;38.520;2023-02-28T03:53:01;100542.44;;;-9.68;91.99
47761;BME280;33524;55.434;38.520;2023-02-28T03:55:37;100550.84;;;-9.77;92.69
47761;BME280;33524;55.434;38.520;2023-02-28T04:01:16;100528.06;;;-9.63;92.96
47761;BME280;33524;55.434;38.520;2023-02-28T04:03:48;100527.50;;;-9.39;92.59
47761;BME280;33524;55.434;38.520;2023-02-28T04:06:22;100521.19;;;-9.72;91.64
47761;BME280;33524;55.434;38.520;2023-02-28T04:08:53;100512.13;;;-9.48;92.87
47761;BME280;33524;55.434;38.520;2023-02-28T04:11:36;100508.81;;;-9.41;93.09
47761;BME280;33524;55.434;38.520;2023-02-28T04:14:09;100506.44;;;-9.23;92.59
47761;BME280;33524;55.434;38.520;2023-02-28T04:16:41;100498.41;;;-9.63;91.59
47761;BME280;33524;55.434;38.520;2023-02-28T04:19:12;100498.06;;;-9.90;91.89
47761;BME280;33524;55.434;38.520;2023-02-28T04:21:47;100496.56;;;-9.75;92.09
47761;BME280;33524;55.434;38.520;2023-02-28T04:24:19;100493.94;;;-9.81;92.22
47761;BME280;33524;55.434;38.520;2023-02-28T04:26:52;100477.97;;;-9.69;93.03
47761;BME280;33524;55.434;38.520;2023-02-28T04:29:25;100486.94;;;-9.97;92.29
47761;BME280;33524;55.434;38.520;2023-02-28T04:31:56;100478.31;;;-9.35;93.91
47761;BME280;33524;55.434;38.520;2023-02-28T04:34:29;100473.88;;;-9.53;92.18
47761;BME280;33524;55.434;38.520;2023-02-28T04:36:59;100465.59;;;-9.30;92.36
47761;BME280;33524;55.434;38.520;2023-02-28T04:39:42;100454.03;;;-8.96;92.87
47761;BME280;33524;55.434;38.520;2023-02-28T04:42:12;100464.75;;;-9.32;91.80
47761;BME280;33524;55.434;38.520;2023-02-28T04:44:43;100461.88;;;-9.63;91.11
47761;BME280;33524;55.434;38.520;2023-02-28T04:47:13;100467.09;;;-9.54;91.35
47761;BME280;33524;55.434;38.520;2023-02-28T04:49:42;100456.84;;;-9.60;91.42
47761;BME280;33524;55.434;38.520;2023-02-28T04:52:12;100456.25;;;-9.36;91.25
47761;BME280;33524;55.434;38.520;2023-02-28T04:54:42;100449.28;;;-9.51;91.58
47761;BME280;33524;55.434;38.520;2023-02-28T04:57:12;100448.34;;;-9.59;91.76
47761;BME280;33524;55.434;38.520;2023-02-28T04:59:41;100445.81;;;-9.61;92.02
47761;BME280;33524;55.434;38.520;2023-02-28T05:02:11;100436.81;;;-9.25;92.85
47761;BME280;33524;55.434;38.520;2023-02-28T05:04:41;100416.13;;;-8.47;93.12
47761;BME280;33524;55.434;38.520;2023-02-28T05:07:10;100431.00;;;-9.05;91.10
47761;BME280;33524;55.434;38.520;2023-02-28T05:09:40;100430.06;;;-9.20;90.27
47761;BME280;33524;55.434;38.520;2023-02-28T05:12:09;100416.47;;;-9.16;90.12
47761;BME280;33524;55.434;38.520;2023-02-28T05:14:40;100417.22;;;-9.32;90.16
47761;BME280;33524;55.434;38.520;2023-02-28T05:17:09;100415.56;;;-9.25;90.53
47761;BME280;33524;55.434;38.520;2023-02-28T05:19:39;100408.00;;;-9.15;90.70
47761;BME280;33524;55.434;38.520;2023-02-28T05:22:14;100394.66;;;-8.84;90.89
47761;BME280;33524;55.434;38.520;2023-02-28T05:24:45;100388.81;;;-8.65;91.01
47761;BME280;33524;55.434;38.520;2023-02-28T05:27:16;100399.00;;;-8.69;89.46
47761;BME280;33524;55.434;38.520;2023-02-28T05:29:46;100378.81;;;-8.14;90.45
47761;BME280;33524;55.434;38.520;2023-02-28T05:32:15;100371.03;;;-8.51;89.52
47761;BME280;33524;55.434;38.520;2023-02-28T05:34:45;100371.91;;;-8.34;89.62
47761;BME280;33524;55.434;38.520;2023-02-28T05:37:15;100369.47;;;-8.07;88.98
47761;BME280;33524;55.434;38.520;2023-02-28T05:39:45;100356.69;;;-8.09;88.57
47761;BME280;33524;55.434;38.520;2023-02-28T05:42:15;100353.16;;;-8.49;88.81
47761;BME280;33524;55.434;38.520;2023-02-28T05:44:45;100348.16;;;-8.17;89.45
47761;BME280;33524;55.434;38.520;2023-02-28T05:47:15;100343.94;;;-8.11;89.07
47761;BME280;33524;55.434;38.520;2023-02-28T05:49:45;100338.06;;;-7.74;89.81
47761;BME280;33524;55.434;38.520;2023-02-28T05:52:15;100341.41;;;-7.98;88.05
47761;BME280;33524;55.434;38.520;2023-02-28T05:54:47;100337.97;;;-8.17;87.81
47761;BME280;33524;55.434;38.520;2023-02-28T05:57:17;100321.87;;;-7.87;88.54
47761;BME280;33524;55.434;38.520;2023-02-28T05:59:52;100301.44;;;-7.48;87.03
47761;BME280;33524;55.434;38.520;2023-02-28T06:02:23;100299.75;;;-7.80;87.12
47761;BME280;33524;55.434;38.520;2023-02-28T06:04:53;100292.94;;;-7.44;88.14
47761;BME280;33524;55.434;38.520;2023-02-28T06:07:22;100284.44;;;-7.59;86.92
47761;BME280;33524;55.434;38.520;2023-02-28T06:09:52;100287.00;;;-7.74;86.62
47761;BME280;33524;55.434;38.520;2023-02-28T06:12:22;100271.66;;;-7.56;86.84
47761;BME280;33524;55.434;38.520;2023-02-28T06:14:51;100275.91;;;-7.48;86.95
47761;BME280;33524;55.434;38.520;2023-02-28T06:17:21;100256.31;;;-7.25;87.51
47761;BME280;33524;55.434;38.520;2023-02-28T06:19:51;100258.88;;;-7.33;84.53
47761;BME280;33524;55.434;38.520;2023-02-28T06:22:21;100252.00;;;-7.14;85.65
47761;BME280;33524;55.434;38.520;2023-02-28T06:24:59;100240.06;;;-7.13;86.29
47761;BME280;33524;55.434;38.520;2023-02-28T06:27:30;100246.03;;;-7.06;84.99
47761;BME280;33524;55.434;38.520;2023-02-28T06:30:01;100236.59;;;-6.86;83.88
47761;BME280;33524;55.434;38.520;2023-02-28T06:32:30;100239.06;;;-6.72;83.42
47761;BME280;33524;55.434;38.520;2023-02-28T06:35:01;100239.94;;;-6.76;81.99
47761;BME280;33524;55.434;38.520;2023-02-28T06:37:32;100229.59;;;-6.48;82.85
47761;BME280;33524;55.434;38.520;2023-02-28T06:40:03;100227.72;;;-6.25;81.12
47761;BME280;33524;55.434;38.520;2023-02-28T06:42:35;100220.78;;;-6.06;82.68
47761;BME280;33524;55.434;38.520;2023-02-28T06:45:10;100207.25;;;-6.26;80.10
47761;BME280;33524;55.434;38.520;2023-02-28T06:47:49;100196.66;;;-5.80;81.94
47761;BME280;33524;55.434;38.520;2023-02-28T06:50:21;100175.53;;;-6.04;79.59
47761;BME280;33524;55.434;38.520;2023-02-28T06:52:54;100180.09;;;-5.49;82.49
47761;BME280;33524;55.434;38.520;2023-02-28T06:55:25;100171.41;;;-5.32;79.91
47761;BME280;33524;55.434;38.520;2023-02-28T06:57:58;100158.25;;;-5.83;76.90
47761;BME280;33524;55.434;38.520;2023-02-28T07:00:28;100160.28;;;-5.31;77.84
47761;BME280;33524;55.434;38.520;2023-02-28T07:02:57;100152.03;;;-5.59;75.30
47761;BME280;33524;55.434;38.520;2023-02-28T07:05:27;100149.34;;;-5.49;76.23
47761;BME280;33524;55.434;38.520;2023-02-28T07:08:00;100147.44;;;-5.30;75.65
47761;BME280;33524;55.434;38.520;2023-02-28T07:10:30;100145.69;;;-5.26;74.42
47761;BME280;33524;55.434;38.520;2023-02-28T07:13:00;100149.53;;;-4.91;73.72
47761;BME280;33524;55.434;38.520;2023-02-28T07:15:30;100156.38;;;-4.92;73.44
47761;BME280;33524;55.434;38.520;2023-02-28T07:18:04;100150.59;;;-4.44;72.25
47761;BME280;33524;55.434;38.520;2023-02-28T07:20:34;100150.31;;;-4.86;68.91
47761;BME280;33524;55.434;38.520;2023-02-28T07:23:03;100144.16;;;-4.71;68.12
47761;BME280;33524;55.434;38.520;2023-02-28T07:25:36;100135.53;;;-4.69;67.92
47761;BME280;33524;55.434;38.520;2023-02-28T07:28:05;100119.84;;;-4.49;68.78
47761;BME280;33524;55.434;38.520;2023-02-28T07:30:36;100111.53;;;-4.64;66.38
47761;BME280;33524;55.434;38.520;2023-02-28T07:33:05;100111.13;;;-4.97;65.53
47761;BME280;33524;55.434;38.520;2023-02-28T07:35:35;100100.44;;;-4.67;64.53
47761;BME280;33524;55.434;38.520;2023-02-28T07:38:04;100082.34;;;-4.57;65.14
47761;BME280;33524;55.434;38.520;2023-02-28T07:40:37;100085.31;;;-4.29;64.37
47761;BME280;33524;55.434;38.520;2023-02-28T07:43:07;100073.59;;;-4.46;63.60
47761;BME280;33524;55.434;38.520;2023-02-28T07:45:36;100063.06;;;-4.30;63.59
47761;BME280;33524;55.434;38.520;2023-02-28T07:48:07;100064.37;;;-4.08;63.77
47761;BME280;33524;55.434;38.520;2023-02-28T07:50:38;100046.59;;;-4.18;62.96
47761;BME280;33524;55.434;38.520;2023-02-28T07:53:08;100046.47;;;-4.09;65.36
47761;BME280;33524;55.434;38.520;2023-02-28T07:55:39;100039.91;;;-3.80;62.57
47761;BME280;33524;55.434;38.520;2023-02-28T07:58:09;100032.03;;;-3.71;63.46
47761;BME280;33524;55.434;38.520;2023-02-28T08:00:39;100030.63;;;-3.88;62.01
47761;BME280;33524;55.434;38.520;2023-02-28T08:03:12;100008.69;;;-3.60;62.28
47761;BME280;33524;55.434;38.520;2023-02-28T08:05:42;100011.31;;;-3.63;62.62
47761;BME280;33524;55.434;38.520;2023-02-28T08:08:12;100004.22;;;-3.52;60.80
47761;BME280;33524;55.434;38.520;2023-02-28T08:10:42;100011.00;;;-3.50;61.21
47761;BME280;33524;55.434;38.520;2023-02-28T08:13:11;99997.97;;;-3.40;61.61
47761;BME280;33524;55.434;38.520;2023-02-28T08:15:42;99991.38;;;-3.13;61.64
47761;BME280;33524;55.434;38.520;2023-02-28T08:18:12;99994.75;;;-3.50;61.33
47761;BME280;33524;55.434;38.520;2023-02-28T08:20:42;99994.84;;;-3.55;62.01
47761;BME280;33524;55.434;38.520;2023-02-28T08:23:12;99995.03;;;-3.64;61.84
47761;BME280;33524;55.434;38.520;2023-02-28T08:25:41;99993.22;;;-3.59;62.82
47761;BME280;33524;55.434;38.520;2023-02-28T08:28:11;99978.00;;;-2.92;62.42
47761;BME280;33524;55.434;38.520;2023-02-28T08:30:41;99978.09;;;-2.95;61.30
47761;BME280;33524;55.434;38.520;2023-02-28T08:33:10;99983.56;;;-2.73;60.87
47761;BME280;33524;55.434;38.520;2023-02-28T08:35:41;99991.94;;;-2.32;61.03
47761;BME280;33524;55.434;38.520;2023-02-28T08:38:11;99975.53;;;-2.28;60.89
47761;BME280;33524;55.434;38.520;2023-02-28T08:40:41;99975.69;;;-2.67;60.67
47761;BME280;33524;55.434;38.520;2023-02-28T08:43:13;99963.69;;;-2.68;60.76
47761;BME280;33524;55.434;38.520;2023-02-28T08:45:43;99958.34;;;-2.94;60.57
47761;BME280;33524;55.434;38.520;2023-02-28T08:48:13;99946.56;;;-2.36;61.25
47761;BME280;33524;55.434;38.520;2023-02-28T08:51:07;99939.56;;;-2.31;61.52
47761;BME280;33524;55.434;38.520;2023-02-28T08:53:39;99935.09;;;-1.63;59.32
47761;BME280;33524;55.434;38.520;2023-02-28T08:56:11;99933.53;;;-1.69;59.36
47761;BME280;33524;55.434;38.520;2023-02-28T08:58:40;99928.94;;;-2.18;60.26
47761;BME280;33524;55.434;38.520;2023-02-28T09:01:14;99921.94;;;-1.84;60.09
47761;BME280;33524;55.434;38.520;2023-02-28T09:03:46;99916.56;;;-2.07;60.71
47761;BME280;33524;55.434;38.520;2023-02-28T09:06:19;99911.59;;;-2.13;61.67
47761;BME280;33524;55.434;38.520;2023-02-28T09:08:49;99907.66;;;-2.25;61.34
47761;BME280;33524;55.434;38.520;2023-02-28T09:11:20;99895.78;;;-2.01;61.63
47761;BME280;33524;55.434;38.520;2023-02-28T09:14:16;99885.88;;;-1.85;60.59
47761;BME280;33524;55.434;38.520;2023-02-28T09:17:24;99893.16;;;-1.98;61.46
47761;BME280;33524;55.434;38.520;2023-02-28T09:19:58;99900.34;;;-1.25;62.03
47761;BME280;33524;55.434;38.520;2023-02-28T09:22:35;99914.63;;;-0.86;60.50
47761;BME280;33524;55.434;38.520;2023-02-28T09:25:08;99913.44;;;-1.03;61.05
47761;BME280;33524;55.434;38.520;2023-02-28T09:27:43;99904.22;;;-1.38;62.13
47761;BME280;33524;55.434;38.520;2023-02-28T09:30:14;99910.53;;;-1.47;62.49
47761;BME280;33524;55.434;38.520;2023-02-28T09:32:45;99908.19;;;-1.84;63.26
47761;BME280;33524;55.434;38.520;2023-02-28T09:35:22;99911.81;;;-1.62;63.34
47761;BME280;33524;55.434;38.520;2023-02-28T09:37:53;99881.69;;;-1.88;64.37
47761;BME280;33524;55.434;38.520;2023-02-28T09:40:24;99889.13;;;-1.78;64.01
47761;BME280;33524;55.434;38.520;2023-02-28T09:42:56;99878.97;;;-1.55;64.39
47761;BME280;33524;55.434;38.520;2023-02-28T09:45:32;99875.16;;;-1.16;63.67
47761;BME280;33524;55.434;38.520;2023-02-28T09:48:16;99864.22;;;-1.51;64.00
47761;BME280;33524;55.434;38.520;2023-02-28T09:50:51;99857.91;;;-1.69;64.81
47761;BME280;33524;55.434;38.520;2023-02-28T09:53:29;99849.88;;;-1.60;65.06
47761;BME280;33524;55.434;38.520;2023-02-28T09:56:10;99846.47;;;-1.89;65.65
47761;BME280;33524;55.434;38.520;2023-02-28T09:58:46;99824.84;;;-1.85;66.43
47761;BME280;33524;55.434;38.520;2023-02-28T10:01:39;99825.41;;;-1.73;66.42
47761;BME280;33524;55.434;38.520;2023-02-28T10:04:16;99822.28;;;-1.85;67.01
47761;BME280;33524;55.434;38.520;2023-02-28T10:06:54;99813.75;;;-1.87;67.31
47761;BME280;33524;55.434;38.520;2023-02-28T10:09:27;99819.91;;;-1.91;67.84
47761;BME280;33524;55.434;38.520;2023-02-28T10:12:04;99827.88;;;-1.98;68.39
47761;BME280;33524;55.434;38.520;2023-02-28T10:14:35;99831.03;;;-2.18;69.24
47761;BME280;33524;55.434;38.520;2023-02-28T10:17:12;99830.28;;;-2.22;69.47
47761;BME280;33524;55.434;38.520;2023-02-28T10:19:58;99824.81;;;-2.11;69.63
47761;BME280;33524;55.434;38.520;2023-02-28T10:22:40;99821.31;;;-2.09;70.02
47761;BME280;33524;55.434;38.520;2023-02-28T10:25:20;99812.41;;;-2.28;70.20
47761;BME280;33524;55.434;38.520;2023-02-28T10:28:14;99803.28;;;-2.09;70.15
47761;BME280;33524;55.434;38.520;2023-02-28T10:30:49;99795.41;;;-2.04;70.12
47761;BME280;33524;55.434;38.520;2023-02-28T10:33:35;99791.41;;;-2.14;70.00
47761;BME280;33524;55.434;38.520;2023-02-28T10:36:05;99791.19;;;-2.07;70.53
47761;BME280;33524;55.434;38.520;2023-02-28T10:38:38;99785.44;;;-1.88;70.11
47761;BME280;33524;55.434;38.520;2023-02-28T10:41:14;99778.50;;;-1.86;69.69
47761;BME280;33524;55.434;38.520;2023-02-28T10:43:45;99771.63;;;-1.86;69.71
47761;BME280;33524;55.434;38.520;2023-02-28T10:46:18;99767.81;;;-2.00;69.85
47761;BME280;33524;55.434;38.520;2023-02-28T10:49:06;99765.72;;;-2.17;70.83
47761;BME280;33524;55.434;38.520;2023-02-28T10:51:43;99740.53;;;-2.36;70.78
47761;BME280;33524;55.434;38.520;2023-02-28T10:54:19;99760.72;;;-2.22;71.35
47761;BME280;33524;55.434;38.520;2023-02-28T10:57:18;99758.53;;;-2.06;70.92
47761;BME280;33524;55.434;38.520;2023-02-28T10:59:53;99747.47;;;-2.10;70.79
47761;BME280;33524;55.434;38.520;2023-02-28T11:02:36;99748.38;;;-2.11;70.81
47761;BME280;33524;55.434;38.520;2023-02-28T11:05:31;99744.75;;;-2.05;70.62
47761;BME280;33524;55.434;38.520;2023-02-28T11:08:06;99722.19;;;-2.25;71.48
47761;BME280;33524;55.434;38.520;2023-02-28T11:10:53;99728.25;;;-2.28;71.59
47761;BME280;33524;55.434;38.520;2023-02-28T11:13:28;99731.97;;;-2.08;71.71
47761;BME280;33524;55.434;38.520;2023-02-28T11:16:02;99743.88;;;-1.77;70.96
47761;BME280;33524;55.434;38.520;2023-02-28T11:18:43;99741.56;;;-2.13;71.60
47761;BME280;33524;55.434;38.520;2023-02-28T11:21:19;99732.72;;;-2.05;71.78
47761;BME280;33524;55.434;38.520;2023-02-28T11:23:53;99741.31;;;-2.06;71.95
47761;BME280;33524;55.434;38.520;2023-02-28T11:26:46;99738.09;;;-2.12;71.83
47761;BME280;33524;55.434;38.520;2023-02-28T11:29:24;99723.84;;;-2.24;72.28
47761;BME280;33524;55.434;38.520;2023-02-28T11:32:22;99727.13;;;-1.91;71.90
47761;BME280;33524;55.434;38.520;2023-02-28T11:35:14;99718.47;;;-2.16;73.08
47761;BME280;33524;55.434;38.520;2023-02-28T11:37:45;99722.59;;;-2.11;73.53
47761;BME280;33524;55.434;38.520;2023-02-28T11:40:24;99718.94;;;-2.32;74.17
47761;BME280;33524;55.434;38.520;2023-02-28T11:46:06;99710.72;;;-2.15;74.33
47761;BME280;33524;55.434;38.520;2023-02-28T11:48:53;99716.59;;;-2.11;74.72
47761;BME280;33524;55.434;38.520;2023-02-28T11:51:33;99712.50;;;-2.17;74.71
47761;BME280;33524;55.434;38.520;2023-02-28T11:56:47;99726.09;;;-2.13;75.02
47761;BME280;33524;55.434;38.520;2023-02-28T12:10:21;99702.22;;;-2.47;76.23
47761;BME280;33524;55.434;38.520;2023-02-28T12:18:41;99708.28;;;-2.48;76.67
47761;BME280;33524;55.434;38.520;2023-02-28T12:21:26;99690.25;;;-2.48;77.08
47761;BME280;33524;55.434;38.520;2023-02-28T12:24:24;99690.91;;;-2.41;76.83
47761;BME280;33524;55.434;38.520;2023-02-28T12:27:03;99695.56;;;-2.26;76.40
47761;BME280;33524;55.434;38.520;2023-02-28T12:32:38;99684.31;;;-2.50;79.39
47761;BME280;33524;55.434;38.520;2023-02-28T12:35:14;99680.19;;;-2.55;80.07
47761;BME280;33524;55.434;38.520;2023-02-28T12:37:52;99681.13;;;-2.58;80.25
47761;BME280;33524;55.434;38.520;2023-02-28T12:40:34;99675.91;;;-2.56;80.29
47761;BME280;33524;55.434;38.520;2023-02-28T12:43:10;99668.47;;;-2.66;81.21
47761;BME280;33524;55.434;38.520;2023-02-28T12:45:53;99668.09;;;-2.53;81.15
47761;BME280;33524;55.434;38.520;2023-02-28T12:48:43;99673.06;;;-2.47;80.76
47761;BME280;33524;55.434;38.520;2023-02-28T12:51:16;99663.81;;;-2.54;80.85
47761;BME280;33524;55.434;38.520;2023-02-28T12:54:19;99651.84;;;-2.55;80.85
47761;BME280;33524;55.434;38.520;2023-02-28T12:57:06;99660.44;;;-2.56;80.67
47761;BME280;33524;55.434;38.520;2023-02-28T12:59:48;99660.44;;;-2.56;80.52
47761;BME280;33524;55.434;38.520;2023-02-28T13:02:45;99648.72;;;-2.65;80.57
47761;BME280;33524;55.434;38.520;2023-02-28T13:08:23;99648.06;;;-2.44;79.54
47761;BME280;33524;55.434;38.520;2023-02-28T13:10:57;99637.88;;;-2.48;79.86
47761;BME280;33524;55.434;38.520;2023-02-28T13:13:30;99633.06;;;-2.59;80.62
47761;BME280;33524;55.434;38.520;2023-02-28T13:16:06;99629.84;;;-2.66;80.82
47761;BME280;33524;55.434;38.520;2023-02-28T13:18:42;99616.78;;;-2.59;80.82
47761;BME280;33524;55.434;38.520;2023-02-28T13:21:29;99620.84;;;-2.52;80.38
47761;BME280;33524;55.434;38.520;2023-02-28T13:24:03;99611.31;;;-2.49;80.02
47761;BME280;33524;55.434;38.520;2023-02-28T13:29:21;99588.38;;;-2.56;80.35
47761;BME280;33524;55.434;38.520;2023-02-28T13:35:12;99574.16;;;-2.68;81.46
47761;BME280;33524;55.434;38.520;2023-02-28T13:37:37;99575.50;;;-2.56;81.44
47761;BME280;33524;55.434;38.520;2023-02-28T13:42:48;99569.09;;;-2.71;81.90
47761;BME280;33524;55.434;38.520;2023-02-28T13:45:22;99580.06;;;-2.65;82.00
47761;BME280;33524;55.434;38.520;2023-02-28T13:47:55;99582.03;;;-2.73;82.78
47761;BME280;33524;55.434;38.520;2023-02-28T13:50:33;99575.00;;;-2.68;82.82
47761;BME280;33524;55.434;38.520;2023-02-28T13:53:34;99576.59;;;-2.64;82.47
47761;BME280;33524;55.434;38.520;2023-02-28T13:59:33;99589.50;;;-2.65;82.69
47761;BME280;33524;55.434;38.520;2023-02-28T14:05:05;99562.12;;;-2.68;83.32
47761;BME280;33524;55.434;38.520;2023-02-28T14:07:43;99561.34;;;-2.70;83.17
47761;BME280;33524;55.434;38.520;2023-02-28T14:10:31;99551.19;;;-2.74;83.73
47761;BME280;33524;55.434;38.520;2023-02-28T14:14:10;99542.88;;;-2.82;84.29
47761;BME280;33524;55.434;38.520;2023-02-28T14:15:58;99547.41;;;-2.62;83.35
47761;BME280;33524;55.434;38.520;2023-02-28T14:18:34;99530.25;;;-2.64;83.36
47761;BME280;33524;55.434;38.520;2023-02-28T14:23:55;99518.50;;;-2.71;83.92
47761;BME280;33524;55.434;38.520;2023-02-28T14:38:07;99524.44;;;-2.69;84.74
47761;BME280;33524;55.434;38.520;2023-02-28T14:40:55;99526.09;;;-2.68;84.99